Time;durP1;ratioP1;P1;durP2;ratioP2;P2;SDS_P1;SDS_P2;PMS_P1;PMS_P2;Temp;Humidity;BMP_temperature;BMP_pressure;BME280_temperature;BME280_humidity;BME280_pressure;Samples;Min_cycle;Max_cycle;Signal;HPM_P1;HPM_P2
2023/04/29 00:01:04;;;;;;;15.10;6.20;;;;;;;9.93;49.17;95294.53;5031014;28;20098;-77
2023/04/29 00:03:31;;;;;;;23.52;7.78;;;;;;;9.91;49.72;95291.38;5031203;28;20135;-77
2023/04/29 00:05:57;;;;;;;12.90;5.82;;;;;;;9.93;49.09;95289.22;5030969;28;20079;-78
2023/04/29 00:08:23;;;;;;;18.55;6.50;;;;;;;9.93;49.00;95292.69;5031051;28;20033;-78
2023/04/29 00:10:48;;;;;;;11.75;6.57;;;;;;;9.68;48.18;95245.03;5030869;28;20063;-78
2023/04/29 00:13:14;;;;;;;9.23;5.18;;;;;;;10.05;48.34;95316.28;5029643;28;20072;-78
2023/04/29 00:15:40;;;;;;;16.52;5.45;;;;;;;10.04;47.97;95315.47;5031020;28;20048;-77
2023/04/29 00:18:06;;;;;;;13.27;5.85;;;;;;;9.54;47.96;95244.75;5029393;28;20086;-77
2023/04/29 00:20:31;;;;;;;13.07;6.32;;;;;;;9.66;47.99;95273.63;5028949;28;20128;-77
2023/04/29 00:22:57;;;;;;;14.25;6.88;;;;;;;9.78;48.82;95303.28;5030445;28;20143;-77
2023/04/29 00:25:22;;;;;;;13.80;6.38;;;;;;;9.98;48.80;95321.03;5036538;28;20032;-77
2023/04/29 00:27:48;;;;;;;17.60;7.38;;;;;;;9.78;49.40;95297.97;5041204;28;20569;-77
2023/04/29 00:30:13;;;;;;;18.10;6.90;;;;;;;9.94;49.51;95318.13;5029274;28;20111;-77
2023/04/29 00:32:39;;;;;;;26.85;7.63;;;;;;;9.90;50.23;95311.78;5029010;28;20081;-78
2023/04/29 00:35:06;;;;;;;25.98;8.80;;;;;;;10.04;50.63;95327.91;5029150;28;20045;-77
2023/04/29 00:37:31;;;;;;;23.05;8.95;;;;;;;10.00;50.14;95322.34;5030612;28;20061;-77
2023/04/29 00:39:57;;;;;;;19.88;8.30;;;;;;;9.88;50.85;95313.88;5030476;28;20071;-78
2023/04/29 00:42:24;;;;;;;18.65;9.13;;;;;;;9.89;51.26;95325.28;5030395;28;20037;-78
2023/04/29 00:44:50;;;;;;;17.98;7.40;;;;;;;9.67;51.06;95288.47;5030203;28;20044;-78
2023/04/29 00:47:15;;;;;;;16.75;7.97;;;;;;;9.69;51.51;95302.22;5030456;28;20116;-77
2023/04/29 00:49:41;;;;;;;21.33;7.85;;;;;;;9.72;51.94;95314.13;5027886;28;20117;-77
2023/04/29 00:52:09;;;;;;;19.98;8.88;;;;;;;9.13;51.88;95229.91;5029776;28;20033;-77
2023/04/29 00:54:36;;;;;;;21.23;8.20;;;;;;;9.60;52.82;95314.41;5028521;28;20026;-78
2023/04/29 00:57:05;;;;;;;19.88;7.68;;;;;;;9.34;52.47;95273.88;5028686;28;20512;-77
2023/04/29 00:59:32;;;;;;;19.05;8.55;;;;;;;9.48;53.04;95308.56;5028698;28;20029;-77
2023/04/29 01:02:01;;;;;;;24.15;8.00;;;;;;;9.33;52.67;95272.28;5028613;28;20499;-78
2023/04/29 01:04:27;;;;;;;20.02;8.35;;;;;;;9.15;53.16;95233.91;5028499;28;20026;-78
2023/04/29 01:07:08;;;;;;;18.50;8.05;;;;;;;8.92;53.85;95215.88;5041400;28;20037;-77
2023/04/29 01:10:30;;;;;;;18.95;8.38;;;;;;;9.35;53.27;95290.53;5029995;28;20079;-77
2023/04/29 01:13:16;;;;;;;21.40;7.85;;;;;;;9.31;53.16;95300.06;4987692;28;20037;-77
2023/04/29 01:16:00;;;;;;;14.40;7.95;;;;;;;9.23;53.80;95286.28;4989275;28;20433;-78
2023/04/29 01:18:31;;;;;;;21.52;7.78;;;;;;;8.99;54.34;95261.38;5017072;28;20042;-77
2023/04/29 01:20:58;;;;;;;15.15;6.95;;;;;;;9.10;54.12;95278.06;5009744;28;20042;-77
2023/04/29 01:23:30;;;;;;;19.88;8.73;;;;;;;9.11;54.24;95275.16;5028016;28;20057;-77
2023/04/29 01:25:57;;;;;;;18.33;6.97;;;;;;;8.97;54.82;95252.91;5034304;28;20079;-77
2023/04/29 01:28:28;;;;;;;16.08;7.13;;;;;;;9.13;54.59;95282.84;5028327;28;20033;-78
2023/04/29 01:31:26;;;;;;;;;;;;;;;9.09;54.83;95285.19;5030511;28;20044;-77
2023/04/29 01:33:54;;;;;;;13.25;6.82;;;;;;;9.08;54.26;95282.81;5027718;28;19917;-77
2023/04/29 01:36:28;;;;;;;15.63;6.72;;;;;;;8.77;55.45;95284.59;5029761;28;20037;-77
2023/04/29 01:39:31;;;;;;;13.45;6.63;;;;;;;8.76;55.46;95286.44;5028297;28;20041;-78
2023/04/29 01:42:07;;;;;;;14.40;7.10;;;;;;;8.81;55.19;95285.66;5027159;28;20033;-78
2023/04/29 01:44:34;;;;;;;17.45;6.78;;;;;;;8.68;55.44;95260.50;5026925;28;20139;-78
2023/04/29 01:47:00;;;;;;;20.58;8.32;;;;;;;8.78;55.03;95289.59;5027915;28;20079;-79
2023/04/29 01:49:26;;;;;;;26.55;8.38;;;;;;;8.36;54.98;95214.91;5029394;28;20472;-79
2023/04/29 01:51:52;;;;;;;17.83;7.82;;;;;;;8.76;54.99;95267.13;5028139;28;20034;-76
2023/04/29 01:54:18;;;;;;;14.13;7.28;;;;;;;8.74;55.04;95253.34;5029836;28;20397;-76
2023/04/29 01:56:43;;;;;;;18.88;8.32;;;;;;;8.58;55.23;95244.59;5013836;28;20053;-76
2023/04/29 01:59:09;;;;;;;17.85;8.00;;;;;;;8.73;55.16;95257.84;5029768;28;20037;-76
2023/04/29 02:01:35;;;;;;;22.80;8.20;;;;;;;8.81;55.47;95273.22;5033609;28;20037;-77
2023/04/29 02:04:01;;;;;;;20.92;8.35;;;;;;;8.78;55.88;95268.44;5033964;28;20037;-76
2023/04/29 02:06:27;;;;;;;13.65;7.20;;;;;;;8.87;55.04;95288.03;5034776;28;20044;-77
2023/04/29 02:08:52;;;;;;;18.40;7.55;;;;;;;8.63;54.64;95246.44;5033411;28;20484;-77
2023/04/29 02:11:18;;;;;;;14.95;7.10;;;;;;;8.59;55.14;95242.72;5034099;28;20111;-77
2023/04/29 02:13:43;;;;;;;16.25;7.18;;;;;;;8.60;54.51;95246.97;5033825;28;20052;-77
2023/04/29 02:16:10;;;;;;;16.50;7.45;;;;;;;8.55;54.42;95223.13;5033590;28;20120;-77
2023/04/29 02:18:36;;;;;;;15.70;6.82;;;;;;;8.87;54.52;95293.34;5033522;28;20037;-77
2023/04/29 02:21:02;;;;;;;18.27;7.68;;;;;;;8.73;53.56;95270.28;5033462;28;20052;-77
2023/04/29 02:23:28;;;;;;;23.25;7.75;;;;;;;8.77;53.67;95295.16;5034880;28;20053;-77
2023/04/29 02:25:54;;;;;;;15.50;7.43;;;;;;;8.29;53.53;95233.59;5040433;28;20555;-77
2023/04/29 02:28:19;;;;;;;15.50;7.38;;;;;;;8.38;53.80;95265.66;5042302;28;20112;-77
2023/04/29 02:30:45;;;;;;;20.08;7.85;;;;;;;8.11;53.81;95266.50;5033144;28;20034;-77
2023/04/29 02:33:10;;;;;;;20.30;7.40;;;;;;;8.20;54.27;95287.97;5034849;28;20412;-77
2023/04/29 02:35:36;;;;;;;15.23;6.97;;;;;;;8.19;53.93;95290.84;5033295;28;20099;-77
2023/04/29 02:38:01;;;;;;;13.40;7.13;;;;;;;8.42;53.31;95283.38;5033529;28;20065;-77
2023/04/29 02:40:27;;;;;;;18.95;6.95;;;;;;;8.23;53.02;95244.41;5036816;28;20037;-77
2023/04/29 02:42:52;;;;;;;14.10;6.72;;;;;;;8.42;52.47;95287.84;5043564;28;20107;-76
2023/04/29 02:45:17;;;;;;;17.45;7.90;;;;;;;7.93;53.89;95258.22;5033003;28;20076;-77
2023/04/29 02:47:43;;;;;;;13.90;7.60;;;;;;;7.85;53.43;95229.66;5034802;28;20068;-77
2023/04/29 02:50:09;;;;;;;21.77;8.02;;;;;;;8.01;53.47;95252.47;5034697;28;20098;-77
2023/04/29 02:52:34;;;;;;;15.55;6.97;;;;;;;8.03;52.97;95266.19;5034134;28;20037;-77
2023/04/29 02:55:00;;;;;;;23.00;8.40;;;;;;;7.86;53.19;95228.63;5033204;28;20447;-77
2023/04/29 02:57:25;;;;;;;15.98;8.02;;;;;;;8.36;53.34;95292.31;5034747;28;20455;-77
2023/04/29 02:59:51;;;;;;;18.88;7.50;;;;;;;8.24;53.25;95301.47;5034590;28;20048;-77
2023/04/29 03:02:16;;;;;;;21.00;7.63;;;;;;;7.50;54.17;95269.78;5032874;28;20056;-77
2023/04/29 03:04:42;;;;;;;16.58;7.93;;;;;;;7.48;54.53;95277.94;5032907;28;20038;-77
2023/04/29 03:07:07;;;;;;;14.57;7.53;;;;;;;7.73;54.13;95294.00;5033957;28;20029;-77
2023/04/29 03:09:33;;;;;;;16.42;7.30;;;;;;;7.71;54.46;95314.56;5032539;28;20125;-77
2023/04/29 03:11:58;;;;;;;18.35;6.85;;;;;;;7.69;53.85;95255.97;5033138;28;20479;-76
2023/04/29 03:14:24;;;;;;;17.80;7.63;;;;;;;7.99;54.05;95288.91;5033888;28;20091;-77
2023/04/29 03:16:49;;;;;;;19.83;7.63;;;;;;;7.12;53.90;95155.50;5032104;28;20064;-77
2023/04/29 03:19:15;;;;;;;14.40;7.32;;;;;;;8.12;53.95;95299.81;5034056;28;20113;-77
2023/04/29 03:21:41;;;;;;;16.17;7.00;;;;;;;8.10;53.70;95309.81;5033886;28;20100;-77
2023/04/29 03:24:06;;;;;;;18.55;7.43;;;;;;;7.78;54.25;95269.50;5047944;28;20033;-77
2023/04/29 03:26:31;;;;;;;19.15;7.88;;;;;;;7.72;54.82;95281.03;5034117;28;20044;-77
2023/04/29 03:28:57;;;;;;;21.42;7.68;;;;;;;7.77;54.92;95294.28;5033374;28;20130;-77
2023/04/29 03:31:24;;;;;;;15.25;8.18;;;;;;;8.04;55.05;95329.34;5031805;28;20121;-76
2023/04/29 03:33:50;;;;;;;28.58;9.02;;;;;;;7.71;56.03;95298.72;5032093;28;20116;-76
2023/04/29 03:36:15;;;;;;;18.98;8.05;;;;;;;7.95;55.50;95337.97;5033222;28;20025;-76
2023/04/29 03:38:41;;;;;;;20.85;8.43;;;;;;;7.68;55.64;95303.72;5033077;28;20029;-76
2023/04/29 03:41:06;;;;;;;18.65;9.07;;;;;;;7.81;55.61;95327.03;5031812;28;20045;-76
2023/04/29 03:43:32;;;;;;;20.42;8.05;;;;;;;7.83;55.83;95314.41;5047665;28;20079;-76
2023/04/29 03:45:57;;;;;;;20.08;8.27;;;;;;;7.63;55.77;95285.97;5031591;28;20029;-76
2023/04/29 03:48:23;;;;;;;24.92;8.60;;;;;;;7.73;56.03;95298.47;5031609;28;20119;-76
2023/04/29 03:50:49;;;;;;;20.67;7.43;;;;;;;7.93;56.33;95326.88;5031443;28;20045;-76
2023/04/29 03:53:15;;;;;;;22.98;8.82;;;;;;;7.95;56.27;95327.41;5031366;28;20063;-77
2023/04/29 03:55:40;;;;;;;17.27;7.65;;;;;;;7.85;56.81;95327.34;5048295;28;20487;-76
2023/04/29 03:58:06;;;;;;;16.25;7.78;;;;;;;7.90;56.53;95332.66;5032390;28;20484;-76
2023/04/29 04:00:31;;;;;;;22.30;8.57;;;;;;;7.98;56.39;95322.44;5030100;28;20045;-76
2023/04/29 04:02:57;;;;;;;20.25;8.80;;;;;;;7.78;56.54;95282.69;5032182;28;20044;-76
2023/04/29 04:05:24;;;;;;;17.95;7.53;;;;;;;8.09;57.20;95325.94;5030468;28;20554;-76
2023/04/29 04:07:53;;;;;;;16.23;8.00;;;;;;;7.66;56.75;95251.16;5031621;28;20523;-76
2023/04/29 04:10:19;;;;;;;20.38;8.35;;;;;;;7.89;56.92;95294.09;5030951;28;20401;-77
2023/04/29 04:12:46;;;;;;;15.27;8.00;;;;;;;8.05;56.95;95315.09;5032114;28;20037;-76
2023/04/29 04:15:11;;;;;;;27.08;9.48;;;;;;;8.21;56.45;95345.03;5032629;28;20472;-76
2023/04/29 04:17:37;;;;;;;16.77;8.25;;;;;;;8.21;55.91;95345.03;5031216;28;20037;-77
2023/04/29 04:20:03;;;;;;;15.15;7.93;;;;;;;8.27;55.43;95346.66;5031237;28;20037;-77
2023/04/29 04:22:28;;;;;;;14.93;7.85;;;;;;;8.12;54.99;95299.00;5031747;28;20112;-77
2023/04/29 04:24:54;;;;;;;16.70;8.63;;;;;;;7.64;55.32;95218.16;5031765;28;20036;-76
2023/04/29 04:27:20;;;;;;;14.02;7.22;;;;;;;8.26;55.23;95313.38;5031365;28;20030;-77
2023/04/29 04:29:46;;;;;;;17.95;7.55;;;;;;;8.30;55.15;95327.66;5030987;28;20025;-77
2023/04/29 04:32:11;;;;;;;19.25;8.02;;;;;;;7.98;54.38;95288.09;5031334;28;20092;-77
2023/04/29 04:34:38;;;;;;;23.00;7.63;;;;;;;7.65;54.99;95257.50;5032161;28;20025;-76
2023/04/29 04:37:05;;;;;;;19.25;7.05;;;;;;;8.16;53.91;95272.91;5031329;28;20045;-77
2023/04/29 04:39:30;;;;;;;24.50;8.80;;;;;;;8.12;54.23;95260.19;5030921;28;20033;-77
2023/04/29 04:41:56;;;;;;;26.80;9.88;;;;;;;8.18;53.13;95271.56;5032481;28;20040;-77
2023/04/29 04:44:21;;;;;;;25.38;8.57;;;;;;;8.75;53.35;95336.94;5032320;28;20022;-77
2023/04/29 04:46:47;;;;;;;12.02;7.07;;;;;;;8.26;54.03;95315.22;5032214;28;20067;-77
2023/04/29 04:49:12;;;;;;;21.10;7.72;;;;;;;8.40;54.29;95351.53;5030520;28;20234;-77
2023/04/29 04:51:37;;;;;;;25.23;7.97;;;;;;;8.36;54.26;95349.66;5030709;28;20136;-77
2023/04/29 04:54:03;;;;;;;18.80;8.05;;;;;;;8.26;54.16;95309.94;5030608;28;20029;-76
2023/04/29 04:56:28;;;;;;;27.90;8.63;;;;;;;8.01;54.92;95300.00;5030702;28;20099;-76
2023/04/29 04:58:54;;;;;;;27.60;9.38;;;;;;;8.20;54.74;95303.03;5045767;28;20030;-76
2023/04/29 05:01:20;;;;;;;21.05;8.95;;;;;;;8.34;54.05;95312.13;5030059;28;20110;-76
2023/04/29 05:03:45;;;;;;;31.48;10.50;;;;;;;8.64;53.53;95336.06;5030082;28;20075;-76
2023/04/29 05:06:10;;;;;;;20.17;8.93;;;;;;;8.76;52.99;95312.06;5031173;28;20033;-76
2023/04/29 05:08:36;;;;;;;20.30;9.77;;;;;;;8.87;52.55;95295.97;5030126;28;20025;-76
2023/04/29 05:11:01;;;;;;;19.20;9.55;;;;;;;9.00;52.23;95294.69;5031357;28;20297;-76
2023/04/29 05:13:27;;;;;;;21.98;9.07;;;;;;;8.95;52.18;95270.88;5030303;28;20118;-76
2023/04/29 05:15:52;;;;;;;29.98;9.38;;;;;;;9.27;52.61;95323.59;5031581;28;20138;-76
2023/04/29 05:18:18;;;;;;;23.55;9.70;;;;;;;9.43;51.66;95317.28;5030066;28;20040;-76
2023/04/29 05:20:43;;;;;;;22.88;9.00;;;;;;;9.29;51.67;95264.09;5031744;28;20492;-77
2023/04/29 05:23:09;;;;;;;18.27;9.73;;;;;;;9.40;52.06;95277.31;5028814;28;20052;-77
2023/04/29 05:25:34;;;;;;;26.05;10.43;;;;;;;9.50;52.18;95277.31;5028376;28;20033;-77
2023/04/29 05:28:02;;;;;;;26.58;9.82;;;;;;;9.78;51.87;95300.63;5030314;28;20061;-77
2023/04/29 05:30:27;;;;;;;30.00;10.35;;;;;;;9.56;52.10;95249.78;5043978;28;20037;-77
2023/04/29 05:32:53;;;;;;;32.50;10.27;;;;;;;9.65;52.23;95261.44;5036392;28;20579;-77
2023/04/29 05:35:18;;;;;;;26.60;10.48;;;;;;;9.93;52.91;95297.97;5029819;28;20117;-77
2023/04/29 05:37:43;;;;;;;25.92;10.95;;;;;;;9.46;51.79;95192.34;5028833;28;20029;-77
2023/04/29 05:40:09;;;;;;;36.67;10.70;;;;;;;9.97;51.33;95303.56;5032090;28;20096;-77
2023/04/29 05:42:35;;;;;;;24.15;10.07;;;;;;;9.78;51.24;95300.63;5031183;28;20033;-77
2023/04/29 05:45:00;;;;;;;30.67;10.32;;;;;;;9.27;51.85;95207.97;5030217;28;20033;-77
2023/04/29 05:47:25;;;;;;;25.17;10.40;;;;;;;10.01;51.41;95270.94;5062869;28;20025;-78
2023/04/29 05:49:51;;;;;;;27.10;9.77;;;;;;;10.21;50.61;95293.22;5031272;28;20038;-77
2023/04/29 05:52:16;;;;;;;24.50;9.23;;;;;;;10.05;50.18;95255.31;5030081;28;20412;-77
2023/04/29 05:54:42;;;;;;;25.27;10.20;;;;;;;10.15;50.43;95252.63;5030172;28;20033;-77
2023/04/29 05:57:07;;;;;;;25.02;10.38;;;;;;;9.95;50.38;95265.94;5029941;28;20042;-77
2023/04/29 05:59:33;;;;;;;27.58;9.30;;;;;;;10.00;50.99;95279.94;5029958;28;20040;-78
2023/04/29 06:01:59;;;;;;;27.63;10.13;;;;;;;9.57;50.95;95209.03;5029862;28;20091;-77
2023/04/29 06:04:25;;;;;;;34.92;10.07;;;;;;;9.56;51.14;95212.72;5031222;28;20037;-77
2023/04/29 06:06:55;;;;;;;32.95;8.30;;;;;;;10.27;50.77;95308.84;5030912;28;20436;-77
2023/04/29 06:09:24;;;;;;;19.60;8.32;;;;;;;10.29;50.28;95292.69;5030045;28;20037;-77
2023/04/29 06:11:50;;;;;;;18.25;8.32;;;;;;;10.12;49.68;95269.09;5031590;28;20034;-77
2023/04/29 06:14:15;;;;;;;13.35;7.50;;;;;;;10.16;49.35;95248.13;5029202;28;20059;-77
2023/04/29 06:16:41;;;;;;;21.35;8.60;;;;;;;10.55;49.54;95296.03;5031248;28;20508;-78
2023/04/29 06:19:06;;;;;;;22.67;7.82;;;;;;;10.52;48.88;95267.44;5029531;28;20057;-77
2023/04/29 06:21:31;;;;;;;18.63;8.18;;;;;;;10.01;48.74;95202.06;5030202;28;20052;-77
2023/04/29 06:23:57;;;;;;;14.90;7.40;;;;;;;9.94;49.39;95228.03;5032305;28;20069;-77
2023/04/29 06:26:23;;;;;;;17.67;7.47;;;;;;;10.11;49.90;95278.09;5031611;28;20547;-77
2023/04/29 06:28:49;;;;;;;15.82;7.20;;;;;;;9.90;49.55;95220.91;5029900;28;20575;-77
2023/04/29 06:31:15;;;;;;;15.13;7.10;;;;;;;10.30;49.08;95263.22;5030497;28;20029;-78
2023/04/29 06:33:41;;;;;;;21.48;7.30;;;;;;;10.45;49.42;95304.84;5031570;28;20491;-77
2023/04/29 06:36:07;;;;;;;21.25;7.35;;;;;;;10.12;49.42;95229.34;5031326;28;20097;-77
2023/04/29 06:38:32;;;;;;;16.75;7.10;;;;;;;10.47;48.99;95260.28;5029782;28;20045;-77
2023/04/29 06:40:59;;;;;;;11.52;5.97;;;;;;;10.86;48.63;95302.03;5029451;28;20037;-77
2023/04/29 06:43:31;;;;;;;11.88;6.60;;;;;;;10.97;48.46;95287.69;5029982;28;20057;-77
2023/04/29 06:45:57;;;;;;;14.23;6.40;;;;;;;10.96;48.46;95268.31;5029659;28;20034;-77
2023/04/29 06:48:22;;;;;;;13.55;6.25;;;;;;;10.90;49.83;95258.00;5032521;28;20111;-78
2023/04/29 06:50:52;;;;;;;13.00;6.50;;;;;;;11.09;49.57;95275.66;5033592;28;20496;-77
2023/04/29 06:53:18;;;;;;;17.35;7.03;;;;;;;11.00;49.08;95263.22;5032831;28;20407;-77
2023/04/29 06:55:45;;;;;;;11.68;6.70;;;;;;;11.06;50.01;95292.13;5032906;28;20033;-77
2023/04/29 06:58:13;;;;;;;20.67;7.03;;;;;;;10.85;51.08;95277.38;5034641;28;20045;-77
2023/04/29 07:00:39;;;;;;;13.43;6.80;;;;;;;10.99;50.66;95280.22;5032578;28;20060;-77
2023/04/29 07:03:05;;;;;;;11.57;6.22;;;;;;;10.73;50.33;95231.81;5038728;28;20106;-77
2023/04/29 07:05:30;;;;;;;13.10;6.22;;;;;;;9.85;51.64;95130.84;5039083;28;20037;-77
2023/04/29 07:07:56;;;;;;;20.20;7.05;;;;;;;10.73;51.09;95245.88;5032718;28;20060;-78
2023/04/29 07:10:21;;;;;;;12.73;7.07;;;;;;;10.91;50.63;95257.69;5039768;28;20530;-78
2023/04/29 07:12:47;;;;;;;11.48;7.00;;;;;;;10.69;51.66;95228.09;5033430;28;20120;-78
2023/04/29 07:15:12;;;;;;;15.30;6.57;;;;;;;10.99;51.47;95253.69;5033243;28;20037;-78
2023/04/29 07:17:38;;;;;;;18.40;7.35;;;;;;;11.13;51.39;95275.91;5034273;28;20037;-78
2023/04/29 07:20:04;;;;;;;15.77;7.13;;;;;;;11.13;50.66;95265.31;5034752;28;20089;-77
2023/04/29 07:22:29;;;;;;;10.25;6.85;;;;;;;11.15;51.05;95260.50;5032145;28;20515;-78
2023/04/29 07:24:55;;;;;;;19.40;6.45;;;;;;;11.10;50.56;95263.19;5032442;28;20099;-78
2023/04/29 07:27:22;;;;;;;11.38;6.57;;;;;;;11.26;50.24;95256.72;5032710;28;20029;-77
2023/04/29 07:29:48;;;;;;;19.27;8.27;;;;;;;10.37;50.41;95123.25;5033005;28;20460;-78
2023/04/29 07:32:14;;;;;;;25.33;8.38;;;;;;;11.32;50.10;95281.38;5034319;28;20065;-78
2023/04/29 07:34:40;;;;;;;12.13;7.78;;;;;;;10.91;49.70;95233.06;5032882;28;20037;-78
2023/04/29 07:37:05;;;;;;;14.80;7.07;;;;;;;11.20;49.57;95241.91;5032325;28;20034;-77
2023/04/29 07:39:31;;;;;;;18.77;6.35;;;;;;;11.30;49.25;95233.06;5032347;28;20060;-77
2023/04/29 07:41:56;;;;;;;10.93;6.43;;;;;;;11.59;49.24;95263.91;5016244;28;20037;-77
2023/04/29 07:44:22;;;;;;;11.90;7.40;;;;;;;11.73;49.31;95279.25;5032238;28;20405;-77
2023/04/29 07:46:47;;;;;;;20.08;6.75;;;;;;;11.27;48.67;95181.31;5033977;28;20371;-77
2023/04/29 07:49:13;;;;;;;21.25;7.25;;;;;;;11.52;48.14;95228.91;5033972;28;20037;-77
2023/04/29 07:51:42;;;;;;;19.27;6.55;;;;;;;11.60;47.75;95204.41;5031966;28;20086;-77
2023/04/29 07:54:08;;;;;;;16.73;7.03;;;;;;;11.85;47.87;95267.19;5032452;28;20492;-77
2023/04/29 07:56:33;;;;;;;13.90;6.68;;;;;;;11.57;47.23;95193.56;5034027;28;20368;-77
2023/04/29 07:59:00;;;;;;;19.08;6.70;;;;;;;11.99;47.02;95222.16;5031731;28;20029;-77
2023/04/29 08:01:26;;;;;;;13.30;6.60;;;;;;;12.09;46.88;95259.28;5031991;28;20029;-77
2023/04/29 08:03:51;;;;;;;10.45;5.75;;;;;;;12.33;46.61;95254.78;5032360;28;20121;-77
2023/04/29 08:06:19;;;;;;;11.98;6.78;;;;;;;12.17;46.55;95200.19;5031959;28;20034;-77
2023/04/29 08:08:45;;;;;;;15.38;7.15;;;;;;;12.24;45.80;95227.22;5031868;28;20056;-77
2023/04/29 08:11:17;;;;;;;15.32;6.10;;;;;;;12.35;44.82;95218.06;5032137;28;20537;-77
2023/04/29 08:13:43;;;;;;;19.92;6.85;;;;;;;12.39;45.00;95220.94;5033329;28;20152;-77
2023/04/29 08:16:09;;;;;;;21.23;6.07;;;;;;;12.79;43.72;95245.50;5031784;28;20520;-77
2023/04/29 08:18:35;;;;;;;13.98;6.30;;;;;;;12.74;43.95;95225.03;5033185;28;20034;-77
2023/04/29 08:21:01;;;;;;;14.52;6.53;;;;;;;12.68;44.23;95191.59;5031907;28;20385;-77
2023/04/29 08:23:26;;;;;;;14.25;6.78;;;;;;;13.05;44.46;95222.78;5032545;28;20123;-77
2023/04/29 08:25:54;;;;;;;15.25;6.15;;;;;;;13.15;45.58;95217.34;5031372;28;20123;-77
2023/04/29 08:28:19;;;;;;;15.45;6.75;;;;;;;13.01;44.09;95197.81;5032046;28;20052;-77
2023/04/29 08:30:44;;;;;;;11.38;6.45;;;;;;;13.03;42.83;95204.44;5031538;28;20033;-77
2023/04/29 08:33:11;;;;;;;14.25;5.97;;;;;;;13.14;43.42;95224.53;5031157;28;20072;-77
2023/04/29 08:35:37;;;;;;;11.77;5.68;;;;;;;13.18;42.69;95234.63;5031412;28;20222;-77
2023/04/29 08:38:07;;;;;;;12.45;5.80;;;;;;;12.98;43.63;95190.38;5033199;28;20432;-77
2023/04/29 08:40:41;;;;;;;7.68;5.32;;;;;;;13.43;43.44;95203.06;5039477;28;20043;-77
2023/04/29 08:43:09;;;;;;;14.63;6.35;;;;;;;13.64;42.69;95216.09;5043436;28;20033;-77
2023/04/29 08:45:35;;;;;;;10.65;5.63;;;;;;;13.84;43.88;95227.19;5031984;28;20025;-77
2023/04/29 08:48:02;;;;;;;10.00;5.63;;;;;;;13.65;41.62;95185.69;5031287;28;20384;-77
2023/04/29 08:50:30;;;;;;;9.52;5.32;;;;;;;13.89;41.76;95194.31;5031647;28;20030;-77
2023/04/29 08:52:56;;;;;;;10.13;5.68;;;;;;;14.07;40.27;95220.13;5033690;28;20088;-77
2023/04/29 08:55:22;;;;;;;17.75;6.30;;;;;;;14.00;39.98;95217.06;5033305;28;20049;-77
2023/04/29 08:57:49;;;;;;;15.52;5.88;;;;;;;14.03;40.71;95215.69;5033738;28;20557;-77
2023/04/29 09:00:15;;;;;;;13.43;5.18;;;;;;;14.01;40.48;95180.53;5035003;28;20083;-77
2023/04/29 09:02:50;;;;;;;8.60;4.88;;;;;;;14.08;39.26;95180.91;5034288;28;20033;-77
2023/04/29 09:05:16;;;;;;;15.00;5.45;;;;;;;14.15;39.22;95141.31;5034772;28;20531;-77
2023/04/29 09:07:43;;;;;;;12.20;5.95;;;;;;;14.43;39.13;95182.94;5033210;28;20041;-77
2023/04/29 09:10:09;;;;;;;18.00;7.60;;;;;;;14.53;38.90;95174.72;5031523;28;20559;-77
2023/04/29 09:12:35;;;;;;;13.05;5.80;;;;;;;14.33;38.43;95209.00;5031646;28;20044;-77
2023/04/29 09:15:35;;;;;;;10.18;4.97;;;;;;;14.67;38.07;95199.53;5031278;28;20025;-77
2023/04/29 09:21:32;;;;;;;11.95;5.53;;;;;;;14.80;37.21;95183.81;5032424;28;20044;-77
2023/04/29 09:24:02;;;;;;;12.07;5.07;;;;;;;14.65;37.50;95164.31;5032691;28;20045;-77
2023/04/29 09:26:41;;;;;;;10.95;5.10;;;;;;;15.04;36.63;95174.44;5043564;28;20052;-77
2023/04/29 09:29:17;;;;;;;9.73;5.40;;;;;;;14.94;36.50;95181.91;5029329;28;20114;-79
2023/04/29 09:31:43;;;;;;;15.15;5.10;;;;;;;15.38;36.15;95176.59;5027967;28;20553;-80
2023/04/29 09:34:10;;;;;;;14.25;5.40;;;;;;;15.41;35.77;95143.13;5029559;28;20076;-79
2023/04/29 09:36:40;;;;;;;15.43;6.05;;;;;;;15.41;35.98;95145.81;5028347;28;20033;-80
2023/04/29 09:39:11;;;;;;;11.55;5.18;;;;;;;15.76;35.34;95176.25;5028317;28;20022;-79
2023/04/29 09:41:40;;;;;;;10.82;5.20;;;;;;;15.97;36.71;95171.97;5029450;28;20476;-79
2023/04/29 09:44:07;;;;;;;14.02;6.25;;;;;;;16.00;35.05;95168.69;5028121;28;20038;-80
2023/04/29 09:46:33;;;;;;;14.18;5.78;;;;;;;15.85;34.46;95115.59;5028173;28;20041;-80
2023/04/29 09:48:59;;;;;;;10.90;5.07;;;;;;;16.13;34.10;95149.06;5028206;28;20034;-79
2023/04/29 09:51:25;;;;;;;14.05;5.97;;;;;;;16.02;34.16;95112.97;5028365;28;20485;-79
2023/04/29 09:53:50;;;;;;;19.63;5.82;;;;;;;16.77;33.01;95162.06;5029175;28;20097;-79
2023/04/29 09:56:16;;;;;;;13.98;5.88;;;;;;;16.66;32.76;95104.53;5029311;28;20053;-80
2023/04/29 09:58:42;;;;;;;13.80;5.85;;;;;;;17.40;32.41;95145.38;5029371;28;20120;-79
2023/04/29 10:01:08;;;;;;;20.45;6.15;;;;;;;17.72;31.44;95154.81;5029218;28;20032;-80
2023/04/29 10:03:35;;;;;;;13.75;5.10;;;;;;;17.56;30.59;95081.31;5027556;28;20492;-79
2023/04/29 10:06:06;;;;;;;11.55;5.60;;;;;;;18.25;30.49;95108.72;5029238;28;20037;-80
2023/04/29 10:08:32;;;;;;;11.60;6.13;;;;;;;18.21;30.30;95121.22;5027950;28;20388;-80
2023/04/29 10:10:59;;;;;;;13.55;5.80;;;;;;;18.04;30.93;95140.84;5029473;28;20026;-80
2023/04/29 10:13:26;;;;;;;13.55;5.85;;;;;;;18.01;30.62;95109.28;5029476;28;20034;-80
2023/04/29 10:16:07;;;;;;;12.95;4.90;;;;;;;17.58;31.13;95085.25;5029098;28;20120;-80
2023/04/29 10:18:36;;;;;;;16.90;6.15;;;;;;;17.79;31.11;95092.63;5027381;28;20030;-80
2023/04/29 10:21:05;;;;;;;11.30;4.78;;;;;;;17.84;30.88;95098.63;5029248;28;20041;-79
2023/04/29 10:23:32;;;;;;;15.35;6.30;;;;;;;17.69;31.30;95081.16;5030944;28;20080;-79
2023/04/29 10:25:59;;;;;;;15.45;5.55;;;;;;;18.04;31.24;95123.97;5031050;28;20029;-79
2023/04/29 10:28:28;;;;;;;17.23;6.93;;;;;;;17.99;31.24;95075.84;5031148;28;20131;-79
2023/04/29 10:30:56;;;;;;;11.18;5.40;;;;;;;18.00;31.18;95113.06;5032424;28;20445;-79
2023/04/29 10:33:22;;;;;;;11.88;5.07;;;;;;;17.00;30.69;95002.78;5031453;28;20021;-79
2023/04/29 10:35:48;;;;;;;20.58;6.40;;;;;;;17.58;30.46;95120.13;5031112;28;20447;-79
2023/04/29 10:38:27;;;;;;;16.92;4.95;;;;;;;17.60;29.86;95109.06;5030932;28;20053;-79
2023/04/29 10:40:55;;;;;;;10.57;5.35;;;;;;;17.89;30.10;95097.66;5032667;28;20395;-79
2023/04/29 10:43:25;;;;;;;10.48;4.97;;;;;;;17.85;29.45;95067.22;5032398;28;20423;-79
2023/04/29 10:46:16;;;;;;;10.63;4.50;;;;;;;17.87;28.21;95105.22;5030488;28;20091;-79
2023/04/29 10:48:55;;;;;;;15.07;5.15;;;;;;;17.88;30.45;95106.81;5029675;28;20056;-79
2023/04/29 10:51:33;;;;;;;13.43;4.47;;;;;;;17.40;31.37;95072.19;5031566;28;20042;-78
2023/04/29 10:54:05;;;;;;;10.95;4.72;;;;;;;17.40;31.66;95105.16;5030155;28;20036;-79
2023/04/29 10:56:36;;;;;;;10.52;3.92;;;;;;;17.23;30.61;95099.84;5044777;28;20057;-79
2023/04/29 10:59:02;;;;;;;12.68;4.10;;;;;;;17.39;31.22;95103.59;5012170;28;20038;-79
2023/04/29 11:01:42;;;;;;;9.48;4.50;;;;;;;16.85;31.58;94996.00;5030530;28;20041;-79
2023/04/29 11:04:09;;;;;;;9.70;4.20;;;;;;;17.28;31.20;95096.97;5030450;28;20036;-79
2023/04/29 11:06:35;;;;;;;9.82;3.83;;;;;;;17.15;31.81;95104.09;5031613;28;20569;-78
2023/04/29 11:09:07;;;;;;;9.10;3.60;;;;;;;16.85;30.02;95083.63;5030602;28;20162;-79
2023/04/29 11:12:04;;;;;;;7.97;3.55;;;;;;;17.01;28.94;95084.72;5029792;28;20037;-79
2023/04/29 11:14:40;;;;;;;5.40;2.83;;;;;;;17.31;28.65;95086.44;5030819;28;20116;-79
2023/04/29 11:17:12;;;;;;;11.27;3.80;;;;;;;16.80;28.90;95092.56;5031034;28;20029;-79
2023/04/29 11:19:41;;;;;;;6.07;3.30;;;;;;;16.68;29.18;95089.75;5031135;28;20116;-79
2023/04/29 11:22:13;;;;;;;4.88;2.80;;;;;;;16.65;27.67;95094.91;5029179;28;20084;-79
2023/04/29 11:24:56;;;;;;;11.75;3.65;;;;;;;16.53;28.85;95095.50;5031474;28;20029;-79
2023/04/29 11:27:24;;;;;;;10.57;3.00;;;;;;;16.39;29.73;95084.16;5029916;28;20472;-79
2023/04/29 11:29:54;;;;;;;7.55;3.40;;;;;;;16.20;30.55;95071.81;5029602;28;20046;-79
2023/04/29 11:32:22;;;;;;;7.80;3.22;;;;;;;16.24;30.91;95063.97;5029222;28;20116;-79
2023/04/29 11:34:47;;;;;;;8.63;3.50;;;;;;;16.32;30.31;95091.84;5029543;28;20034;-79